Time;durP1;ratioP1;P1;durP2;ratioP2;P2;SDS_P1;SDS_P2;PMS_P1;PMS_P2;Temp;Humidity;BMP_temperature;BMP_pressure;BME280_temperature;BME280_humidity;BME280_pressure;Samples;Min_cycle;Max_cycle;Signal;HPM_P1;HPM_P2
2022/07/16 00:02:36;;;;;;;7.97;2.95;;;17.60;61.40;;;16.69;48.80;97762.53;5029247;28;20402;-75
2022/07/16 00:05:03;;;;;;;4.05;3.10;;;17.60;61.50;;;16.68;48.61;97766.31;5029217;28;20407;-75
2022/07/16 00:07:29;;;;;;;6.65;2.63;;;17.60;61.40;;;16.64;48.50;97758.03;5029199;28;20518;-75
2022/07/16 00:09:58;;;;;;;4.68;2.90;;;17.50;61.30;;;16.67;48.29;97759.38;5028575;28;20415;-75
2022/07/16 00:12:24;;;;;;;5.63;2.83;;;17.50;61.40;;;16.60;48.46;97761.53;5029313;28;20415;-75
2022/07/16 00:14:50;;;;;;;6.50;2.87;;;17.50;61.50;;;16.48;48.32;97761.09;5028933;28;20881;-75
2022/07/16 00:17:16;;;;;;;5.20;3.08;;;17.30;61.80;;;16.46;48.62;97755.25;5029205;28;20457;-75
2022/07/16 00:19:42;;;;;;;8.23;3.20;;;17.30;61.80;;;16.41;49.09;97758.72;5028504;28;20430;-75
2022/07/16 00:22:08;;;;;;;4.13;2.90;;;17.30;62.20;;;16.36;49.53;97755.31;5028983;28;20399;-74
2022/07/16 00:24:34;;;;;;;5.40;2.70;;;17.20;62.50;;;16.44;48.93;97755.50;5032115;28;20403;-75
2022/07/16 00:27:01;;;;;;;6.43;2.80;;;17.30;62.20;;;16.40;48.74;97765.16;5032406;28;20425;-75
2022/07/16 00:29:27;;;;;;;5.30;2.63;;;17.20;62.10;;;16.24;49.01;97753.78;5031926;28;20403;-75
2022/07/16 00:31:54;;;;;;;5.25;2.67;;;17.10;62.10;;;16.16;49.45;97759.69;5032430;28;20489;-75
2022/07/16 00:34:21;;;;;;;4.65;2.90;;;17.00;62.50;;;16.29;49.17;97755.63;5032343;28;20422;-74
2022/07/16 00:36:47;;;;;;;4.65;2.88;;;17.10;62.50;;;16.13;49.52;97754.94;5032474;28;20399;-75
2022/07/16 00:39:15;;;;;;;4.73;2.80;;;17.00;62.50;;;16.11;49.39;97753.59;5031796;28;20494;-75
2022/07/16 00:41:43;;;;;;;4.80;3.00;;;17.00;62.60;;;16.07;49.44;97758.72;5032022;28;20411;-76
2022/07/16 00:44:17;;;;;;;4.70;2.80;;;16.90;62.70;;;16.07;49.77;97752.56;5032323;28;20422;-75
2022/07/16 00:46:45;;;;;;;5.57;3.03;;;16.90;62.90;;;16.02;49.96;97753.38;5032017;28;20498;-75
2022/07/16 00:49:13;;;;;;;4.23;2.87;;;16.90;63.20;;;16.03;49.88;97768.34;5031523;28;20477;-75
2022/07/16 00:51:44;;;;;;;4.55;2.80;;;16.90;63.30;;;15.99;49.98;97766.50;5031981;28;20838;-75
2022/07/16 00:54:11;;;;;;;4.35;2.90;;;16.90;63.50;;;15.90;50.18;97758.28;5032045;28;20966;-75
2022/07/16 00:56:37;;;;;;;5.47;2.72;;;16.80;63.50;;;15.85;50.34;97752.97;5031892;28;20482;-75
2022/07/16 00:59:03;;;;;;;8.27;2.78;;;16.70;63.60;;;15.92;50.38;97763.34;5031308;28;20399;-75
2022/07/16 01:01:31;;;;;;;4.35;2.80;;;16.80;63.90;;;15.82;50.37;97759.66;5031809;28;20414;-75
2022/07/16 01:03:58;;;;;;;5.65;2.95;;;16.70;63.80;;;15.77;50.49;97759.69;5031677;28;20399;-75
2022/07/16 01:06:24;;;;;;;5.22;2.85;;;16.60;63.90;;;15.72;50.79;97762.38;5031714;28;20892;-76
2022/07/16 01:08:50;;;;;;;4.95;2.80;;;16.60;64.10;;;15.69;50.81;97757.59;5031086;28;20900;-75
2022/07/16 01:11:19;;;;;;;5.83;3.10;;;16.60;64.20;;;15.71;50.96;97755.44;5031537;28;20493;-75
2022/07/16 01:13:49;;;;;;;6.00;3.08;;;16.60;64.50;;;15.67;51.16;97751.72;5031437;28;20423;-75
2022/07/16 01:16:16;;;;;;;5.10;2.90;;;16.50;64.30;;;15.64;51.18;97756.81;5031514;28;20403;-75
2022/07/16 01:18:45;;;;;;;4.70;2.90;;;16.60;64.60;;;15.64;51.36;97759.47;5031025;28;20927;-75
2022/07/16 01:21:12;;;;;;;7.72;3.00;;;16.50;64.90;;;15.66;51.27;97768.81;5031218;28;20402;-76
2022/07/16 01:23:40;;;;;;;4.55;3.03;;;16.50;64.80;;;15.58;51.42;97766.69;5013593;28;20411;-75
2022/07/16 01:26:06;;;;;;;5.40;3.03;;;16.50;64.80;;;15.52;51.64;97759.78;5031355;28;20407;-75
2022/07/16 01:28:32;;;;;;;5.45;2.83;;;16.40;65.10;;;15.49;51.52;97760.31;5030773;28;20904;-75
2022/07/16 01:30:58;;;;;;;8.90;3.10;;;16.40;65.10;;;15.49;51.11;97768.31;5031012;28;20549;-75
2022/07/16 01:33:29;;;;;;;5.85;2.75;;;16.40;64.80;;;15.48;51.29;97766.75;5031142;28;20467;-75
2022/07/16 01:35:57;;;;;;;4.50;3.25;;;16.40;65.00;;;15.40;51.90;97768.09;5031258;28;20515;-75
2022/07/16 01:38:24;;;;;;;4.27;3.03;;;16.30;65.30;;;15.45;51.52;97764.59;5030698;28;20442;-75
2022/07/16 01:40:51;;;;;;;5.00;2.92;;;16.30;65.30;;;15.34;51.76;97773.69;5030741;28;20406;-75
2022/07/16 01:43:21;;;;;;;5.80;2.75;;;16.20;65.30;;;15.33;52.01;97772.13;5031080;28;20399;-75
2022/07/16 01:45:47;;;;;;;5.03;2.95;;;16.20;65.50;;;15.29;51.67;97779.06;5030768;28;20413;-75
2022/07/16 01:48:14;;;;;;;5.07;3.00;;;16.20;65.40;;;15.29;51.50;97776.38;5030501;28;20419;-75
2022/07/16 01:50:42;;;;;;;4.22;2.80;;;16.20;65.60;;;15.19;52.50;97771.06;5030578;28;20402;-75
2022/07/16 01:53:09;;;;;;;4.75;2.75;;;16.10;65.90;;;15.16;52.35;97769.75;5030759;28;20395;-75
2022/07/16 01:55:36;;;;;;;7.50;3.00;;;16.10;66.10;;;15.20;52.04;97767.34;5030677;28;20498;-75
2022/07/16 01:58:05;;;;;;;4.47;2.80;;;16.10;65.80;;;15.13;52.77;97764.97;5030338;28;20407;-75
2022/07/16 02:00:33;;;;;;;5.72;2.80;;;16.00;66.30;;;15.11;52.61;97769.75;5030544;28;20407;-75
2022/07/16 02:02:59;;;;;;;3.78;2.60;;;16.00;66.30;;;15.13;52.07;97767.63;5030727;28;20438;-75
2022/07/16 02:05:25;;;;;;;5.95;2.90;;;16.00;66.10;;;15.17;52.02;97765.22;5030472;28;20453;-76
2022/07/16 02:07:51;;;;;;;5.75;2.83;;;16.00;66.20;;;15.06;52.57;97769.78;5030425;28;20429;-75
2022/07/16 02:10:18;;;;;;;4.47;2.63;;;16.00;66.30;;;15.01;52.46;97759.94;5029756;28;20461;-76
2022/07/16 02:12:45;;;;;;;5.57;2.80;;;15.90;66.40;;;14.98;52.64;97768.47;5030643;28;20776;-75
2022/07/16 02:15:12;;;;;;;4.28;2.92;;;15.90;66.50;;;14.95;52.66;97765.56;5030371;28;20407;-75
2022/07/16 02:17:39;;;;;;;4.55;2.80;;;15.90;66.60;;;14.89;53.03;97774.59;5030486;28;20410;-76
2022/07/16 02:20:08;;;;;;;5.40;3.20;;;15.80;66.70;;;14.90;52.72;97769.00;5029552;28;20403;-76
2022/07/16 02:22:34;;;;;;;4.93;2.90;;;15.80;66.70;;;14.96;52.79;97767.16;5030396;28;20473;-75
2022/07/16 02:25:01;;;;;;;3.88;2.55;;;15.90;66.50;;;14.85;53.03;97770.88;5030062;28;20399;-75
2022/07/16 02:27:27;;;;;;;3.80;2.65;;;15.70;66.90;;;14.77;52.94;97761.56;5030266;28;20430;-75
2022/07/16 02:29:53;;;;;;;6.20;2.80;;;15.70;67.10;;;14.76;53.24;97767.16;5029687;28;21200;-76
2022/07/16 02:32:20;;;;;;;4.53;2.78;;;15.70;67.10;;;14.73;53.33;97765.84;5030089;28;20407;-75
2022/07/16 02:34:48;;;;;;;6.55;2.90;;;15.60;67.20;;;14.84;53.24;97761.28;5030096;28;20403;-75
2022/07/16 02:37:14;;;;;;;5.25;3.10;;;15.70;67.50;;;14.76;53.44;97772.50;5030252;28;20413;-75
2022/07/16 02:39:41;;;;;;;5.90;2.58;;;15.70;67.60;;;14.73;53.58;97770.38;5029624;28;20936;-75
2022/07/16 02:42:07;;;;;;;5.53;3.05;;;15.60;67.50;;;14.72;53.43;97758.91;5030166;28;20403;-75
2022/07/16 02:44:33;;;;;;;5.40;3.13;;;15.60;67.50;;;14.78;53.09;97760.50;5030132;28;20395;-76
2022/07/16 02:46:58;;;;;;;6.30;2.83;;;15.60;67.30;;;14.57;53.60;97761.59;5029261;28;20403;-76
2022/07/16 02:49:26;;;;;;;5.80;2.83;;;15.50;67.60;;;14.54;53.55;97754.94;5029442;28;20411;-75
2022/07/16 02:51:52;;;;;;;5.00;2.87;;;15.40;67.90;;;14.56;53.84;97770.66;5029830;28;20407;-76
2022/07/16 02:54:18;;;;;;;3.72;2.70;;;15.40;68.00;;;14.55;53.74;97763.72;5029872;28;20391;-76
2022/07/16 02:56:44;;;;;;;5.47;3.30;;;15.40;67.90;;;14.50;53.69;97763.72;5029861;28;20403;-75
2022/07/16 02:59:10;;;;;;;3.70;2.73;;;15.40;68.10;;;14.47;54.35;97767.72;5029347;28;20540;-75
2022/07/16 03:01:36;;;;;;;6.25;3.10;;;15.40;68.50;;;14.51;54.62;97770.66;5029622;28;20407;-76
2022/07/16 03:04:02;;;;;;;7.38;3.25;;;15.40;68.80;;;14.45;53.97;97769.03;5029841;28;20765;-75
2022/07/16 03:06:30;;;;;;;4.60;2.80;;;15.40;68.50;;;14.48;53.95;97771.97;5029828;28;20402;-75
2022/07/16 03:08:56;;;;;;;5.32;2.90;;;15.40;68.40;;;14.36;54.06;97768.72;5029171;28;20835;-76
2022/07/16 03:11:22;;;;;;;6.83;3.03;;;15.30;68.50;;;14.36;54.28;97767.97;5029582;28;20498;-75
2022/07/16 03:13:48;;;;;;;5.63;2.97;;;15.20;68.60;;;14.33;54.63;97775.41;5029766;28;20398;-76
2022/07/16 03:16:14;;;;;;;5.60;3.10;;;15.20;68.90;;;14.22;54.67;97767.66;5029604;28;20473;-75
2022/07/16 03:18:39;;;;;;;5.22;2.70;;;15.20;69.20;;;14.15;54.99;97762.59;5029039;28;20411;-75
2022/07/16 03:21:05;;;;;;;4.15;2.65;;;15.10;69.30;;;14.25;54.67;97764.47;5029373;28;20465;-76
2022/07/16 03:23:33;;;;;;;5.03;2.65;;;15.10;69.20;;;14.15;54.67;97765.25;5029575;28;20415;-75
2022/07/16 03:25:59;;;;;;;3.55;2.75;;;15.10;69.10;;;14.26;54.54;97764.22;5029646;28;20403;-76
2022/07/16 03:28:24;;;;;;;4.63;2.70;;;15.10;68.90;;;14.19;54.31;97763.69;5029071;28;20425;-75
2022/07/16 03:30:50;;;;;;;5.07;2.73;;;15.10;68.80;;;14.14;54.71;97762.84;5029460;28;20399;-76
2022/07/16 03:33:16;;;;;;;4.97;2.45;;;15.00;69.10;;;14.10;54.83;97772.44;5029638;28;20434;-75
2022/07/16 03:35:42;;;;;;;4.72;2.67;;;15.00;69.30;;;14.05;54.88;97767.91;5029200;28;21216;-75
2022/07/16 03:40:54;;;;;;;6.60;3.08;;;14.90;69.40;;;14.05;54.81;97769.78;5029293;28;20397;-76
2022/07/16 03:43:20;;;;;;;4.45;2.50;;;15.00;69.50;;;13.97;54.97;97764.97;5029492;28;20411;-76
2022/07/16 03:45:46;;;;;;;4.97;3.10;;;14.90;69.70;;;13.99;55.29;97766.28;5046526;22;20419;-74
2022/07/16 03:48:12;;;;;;;5.63;3.22;;;14.90;70.00;;;14.00;55.24;97764.44;5048757;28;20413;-74
2022/07/16 03:50:38;;;;;;;4.50;2.70;;;14.90;70.00;;;13.97;55.56;97773.75;5048952;28;20491;-74
2022/07/16 03:53:04;;;;;;;6.57;3.10;;;14.90;70.20;;;13.91;56.09;97778.25;5049642;28;20479;-74
2022/07/16 03:55:30;;;;;;;4.28;2.90;;;14.80;70.40;;;13.88;56.22;97773.47;5047497;28;20405;-75
2022/07/16 03:57:57;;;;;;;6.40;3.00;;;14.80;70.80;;;13.85;56.33;97776.63;5031798;28;20401;-74
2022/07/16 04:00:23;;;;;;;6.43;3.08;;;14.80;71.00;;;13.85;56.29;97779.31;5032527;28;20439;-74
2022/07/16 04:02:49;;;;;;;4.57;2.80;;;14.80;71.10;;;13.85;56.62;97781.16;5033377;28;20457;-74
2022/07/16 04:05:15;;;;;;;5.30;3.00;;;14.80;71.20;;;13.94;56.49;97788.38;5033249;28;20805;-75
2022/07/16 04:07:41;;;;;;;5.80;3.05;;;14.80;71.40;;;13.93;56.93;97788.63;5032992;28;20780;-73
2022/07/16 04:10:07;;;;;;;4.32;3.05;;;14.80;71.60;;;13.81;56.92;97793.41;5032356;28;20399;-74
2022/07/16 04:12:33;;;;;;;5.65;2.83;;;14.70;71.70;;;13.86;57.30;97788.09;5033087;28;20403;-73
2022/07/16 04:15:01;;;;;;;5.40;3.00;;;14.80;72.20;;;13.92;57.52;97803.00;5032868;28;20761;-73
2022/07/16 04:17:26;;;;;;;4.20;2.97;;;14.80;72.40;;;13.89;57.67;97800.88;5032932;28;20411;-74
2022/07/16 04:19:52;;;;;;;6.40;3.30;;;14.80;72.50;;;13.92;57.52;97805.66;5032364;28;20402;-73
2022/07/16 04:22:18;;;;;;;5.75;3.10;;;14.80;72.60;;;13.92;57.61;97806.47;5032754;28;20760;-73
2022/07/16 04:24:44;;;;;;;4.78;2.88;;;14.80;72.70;;;13.95;58.14;97799.81;5032868;28;20988;-73
2022/07/16 04:27:10;;;;;;;3.70;2.97;;;14.80;73.00;;;13.93;58.36;97804.59;5015090;28;20533;-75
2022/07/16 04:29:36;;;;;;;5.95;3.28;;;14.80;73.40;;;14.01;58.57;97803.28;5032846;28;20430;-74
2022/07/16 04:32:05;;;;;;;4.80;3.20;;;14.90;73.80;;;14.08;58.67;97801.19;5032725;28;20501;-74
2022/07/16 04:34:31;;;;;;;6.60;3.13;;;15.00;73.90;;;14.10;58.84;97799.88;5032446;28;20403;-76
2022/07/16 04:36:57;;;;;;;4.78;2.80;;;15.00;74.10;;;14.11;58.93;97809.44;5032685;28;20490;-75
2022/07/16 04:39:23;;;;;;;3.90;3.00;;;15.00;74.20;;;14.13;59.18;97806.53;5032090;28;20407;-75
2022/07/16 04:41:49;;;;;;;4.68;2.92;;;15.00;74.50;;;14.18;59.24;97810.00;5032512;28;20418;-74
2022/07/16 04:44:15;;;;;;;5.28;3.00;;;15.00;74.70;;;14.20;59.33;97801.75;5032337;28;20412;-74
2022/07/16 04:46:41;;;;;;;4.93;2.88;;;15.10;74.90;;;14.26;59.29;97806.81;5032145;28;20407;-74
2022/07/16 04:49:08;;;;;;;4.15;2.83;;;15.10;75.00;;;14.32;58.90;97804.97;5031972;28;20407;-75
2022/07/16 04:51:34;;;;;;;7.35;3.28;;;15.20;74.60;;;14.38;58.63;97811.09;5032150;28;20464;-75
2022/07/16 04:54:00;;;;;;;3.45;2.63;;;15.20;74.40;;;14.45;59.14;97804.47;5032416;28;20411;-74
2022/07/16 04:56:26;;;;;;;5.20;2.90;;;15.30;74.80;;;14.54;58.68;97818.06;5032369;28;20411;-74
2022/07/16 04:58:52;;;;;;;4.85;3.00;;;15.40;74.60;;;14.62;58.53;97810.34;5031755;28;20401;-75
2022/07/16 05:01:18;;;;;;;5.00;3.10;;;15.50;75.20;;;14.72;58.28;97809.56;5032067;28;20768;-74
2022/07/16 05:03:44;;;;;;;7.80;2.90;;;15.50;74.20;;;14.84;58.46;97818.06;5032118;28;20415;-74
2022/07/16 05:06:11;;;;;;;3.95;2.80;;;15.70;74.20;;;14.97;58.43;97814.03;5032360;28;20421;-74
2022/07/16 05:08:37;;;;;;;4.28;2.83;;;15.80;74.30;;;15.10;58.88;97818.84;5030765;28;20904;-74
2022/07/16 05:11:03;;;;;;;3.50;2.63;;;15.90;74.40;;;15.20;58.33;97818.81;5031890;28;20399;-74
2022/07/16 05:13:29;;;;;;;5.40;3.00;;;16.00;74.20;;;15.33;58.24;97825.47;5031877;28;20402;-74
2022/07/16 05:15:55;;;;;;;5.70;3.00;;;16.10;74.20;;;15.44;58.59;97825.16;5031857;28;20476;-75
2022/07/16 05:18:21;;;;;;;3.53;2.60;;;16.30;74.20;;;15.53;58.26;97828.09;5031371;28;21065;-75
2022/07/16 05:20:47;;;;;;;4.20;2.88;;;16.30;74.00;;;15.61;57.84;97827.56;5031595;28;20419;-74
2022/07/16 05:23:14;;;;;;;3.83;2.78;;;16.50;73.80;;;15.67;57.69;97823.78;5031960;28;20442;-74
2022/07/16 05:25:40;;;;;;;5.37;3.03;;;16.50;73.60;;;15.77;57.50;97834.44;5031338;28;20588;-74
2022/07/16 05:28:06;;;;;;;4.32;2.83;;;16.50;73.40;;;15.84;56.81;97829.59;5031183;28;20415;-74
2022/07/16 05:30:32;;;;;;;4.53;2.65;;;16.60;72.60;;;15.92;56.51;97828.22;5031635;28;20773;-75
2022/07/16 05:32:58;;;;;;;4.65;2.58;;;16.70;72.20;;;15.99;56.08;97826.06;5031471;28;20417;-75
2022/07/16 05:35:24;;;;;;;4.32;2.90;;;16.80;71.90;;;16.08;55.69;97820.94;5031356;28;20403;-74
2022/07/16 05:37:50;;;;;;;4.50;2.50;;;16.90;71.50;;;16.14;54.99;97828.66;5031545;28;20940;-74
2022/07/16 05:40:17;;;;;;;3.93;2.57;;;16.90;70.70;;;16.20;54.83;97824.88;5030728;28;20457;-75
2022/07/16 05:42:43;;;;;;;2.83;2.20;;;17.00;70.30;;;16.28;54.53;97834.16;5031223;28;20403;-75
2022/07/16 05:45:10;;;;;;;3.70;2.63;;;17.00;70.10;;;16.33;53.73;97833.34;5031368;28;20952;-74
2022/07/16 05:47:37;;;;;;;4.00;2.43;;;17.10;69.30;;;16.36;53.08;97838.94;5027958;28;20514;-75
2022/07/16 05:50:04;;;;;;;4.38;2.35;;;17.20;68.60;;;16.40;53.03;97831.94;5029885;28;21070;-74
2022/07/16 05:52:31;;;;;;;5.38;2.67;;;17.20;68.30;;;16.42;52.74;97829.81;5022091;28;20411;-75
2022/07/16 05:54:57;;;;;;;3.78;2.50;;;17.20;68.00;;;16.44;52.43;97830.34;5031140;28;20469;-74
2022/07/16 05:57:24;;;;;;;4.23;2.50;;;17.20;67.70;;;16.46;51.98;97825.53;5031111;28;20399;-75
2022/07/16 05:59:50;;;;;;;3.92;2.35;;;17.20;67.40;;;16.47;51.80;97828.97;5030241;28;20403;-75
2022/07/16 06:02:16;;;;;;;4.38;2.42;;;17.20;67.00;;;16.49;51.41;97834.84;5027919;28;20494;-75
2022/07/16 06:04:45;;;;;;;5.15;2.47;;;17.20;66.50;;;16.51;50.84;97830.81;5008740;28;20417;-75
2022/07/16 06:07:11;;;;;;;4.07;2.63;;;17.20;66.00;;;16.52;50.78;97827.06;5012641;28;20434;-75
2022/07/16 06:09:37;;;;;;;5.75;2.20;;;17.30;65.80;;;16.53;50.34;97830.53;5029477;28;20419;-75
2022/07/16 06:12:04;;;;;;;4.18;2.40;;;17.30;65.60;;;16.57;49.96;97835.03;5030007;28;20410;-74
2022/07/16 06:14:31;;;;;;;3.58;2.17;;;17.30;65.60;;;16.59;49.95;97838.25;5012256;28;20407;-74
2022/07/16 06:16:57;;;;;;;4.43;1.90;;;17.30;64.90;;;16.62;49.76;97834.22;5028926;28;20435;-75
2022/07/16 06:19:23;;;;;;;3.33;2.30;;;17.30;64.50;;;16.65;49.25;97839.03;5024110;28;20480;-74
2022/07/16 06:21:49;;;;;;;5.70;2.08;;;17.40;64.00;;;16.68;48.97;97837.69;5023309;28;20417;-75
2022/07/16 06:24:15;;;;;;;7.25;2.33;;;17.40;63.70;;;16.72;49.05;97836.03;5029699;28;20866;-74
2022/07/16 06:26:46;;;;;;;4.18;2.30;;;17.50;63.70;;;16.76;48.02;97829.88;5024458;28;20450;-75
2022/07/16 06:29:13;;;;;;;3.38;2.10;;;17.50;63.00;;;16.82;47.94;97849.34;5034716;28;20514;-76
2022/07/16 06:31:40;;;;;;;3.47;2.10;;;17.50;62.50;;;16.87;48.39;97849.28;5036104;28;20401;-76
2022/07/16 06:34:06;;;;;;;5.20;1.98;;;17.60;63.00;;;16.92;48.78;97843.88;5031794;28;20460;-75
2022/07/16 06:36:32;;;;;;;2.97;1.98;;;17.60;63.30;;;16.98;49.16;97850.81;5026534;28;20418;-75
2022/07/16 06:38:58;;;;;;;3.50;2.17;;;17.70;63.70;;;17.06;48.32;97849.41;5032778;28;20399;-75
2022/07/16 06:41:24;;;;;;;2.90;2.03;;;17.80;63.00;;;17.12;48.92;97850.94;5029973;28;20437;-75
2022/07/16 06:43:50;;;;;;;3.00;1.80;;;17.80;63.30;;;17.17;48.88;97848.22;5014390;28;20491;-76
2022/07/16 06:46:16;;;;;;;3.50;1.90;;;17.90;63.50;;;17.22;49.33;97850.84;5036167;28;20401;-76
2022/07/16 06:48:43;;;;;;;3.55;2.00;;;17.90;63.80;;;17.25;49.21;97856.44;5028237;28;20773;-75
2022/07/16 06:51:09;;;;;;;5.15;2.28;;;18.00;63.90;;;17.28;49.27;97853.22;5029270;28;20481;-76
2022/07/16 06:53:36;;;;;;;3.73;2.10;;;18.00;63.90;;;17.33;49.13;97853.16;5037715;28;20556;-73
2022/07/16 06:56:03;;;;;;;3.30;2.20;;;18.00;63.60;;;17.39;48.88;97856.56;5039608;28;20394;-74
2022/07/16 06:58:29;;;;;;;3.60;2.15;;;18.10;63.50;;;17.42;48.77;97851.47;5039553;28;20395;-74
2022/07/16 07:00:55;;;;;;;3.20;2.25;;;18.10;63.50;;;17.48;49.23;97864.78;5038026;28;20407;-74
2022/07/16 07:03:21;;;;;;;4.47;2.05;;;18.20;63.60;;;17.51;49.22;97858.88;5038349;28;20411;-75
2022/07/16 07:05:52;;;;;;;3.45;2.00;;;18.20;63.80;;;17.57;49.11;97860.41;5036721;28;20469;-75
2022/07/16 07:08:18;;;;;;;4.95;2.10;;;18.20;63.60;;;17.59;49.25;97861.69;5011464;28;20473;-72
2022/07/16 07:10:44;;;;;;;5.18;2.22;;;18.30;63.80;;;17.65;49.05;97865.97;5010451;28;20774;-75
2022/07/16 07:13:10;;;;;;;2.95;2.05;;;18.30;63.70;;;17.70;49.23;97860.56;5036132;28;20415;-76
2022/07/16 07:15:36;;;;;;;3.25;2.10;;;18.40;63.80;;;17.74;48.91;97863.47;5029542;28;20438;-75
2022/07/16 07:18:02;;;;;;;6.95;2.22;;;18.40;63.40;;;17.79;48.70;97858.84;5029374;28;20461;-75
2022/07/16 07:20:28;;;;;;;3.55;1.90;;;18.50;63.30;;;17.86;48.60;97866.53;5029225;28;20407;-75
2022/07/16 07:22:56;;;;;;;4.55;1.95;;;18.50;63.10;;;17.89;48.70;97865.97;5029634;28;20399;-74
2022/07/16 07:25:25;;;;;;;4.40;2.15;;;18.60;63.20;;;17.97;48.22;97868.00;5029047;28;20499;-76
2022/07/16 07:27:52;;;;;;;4.95;2.30;;;18.60;62.90;;;18.02;48.12;97867.16;5021793;28;20526;-74
2022/07/16 07:30:18;;;;;;;5.22;2.10;;;18.70;62.70;;;18.06;47.90;97873.50;5036896;28;20438;-75
2022/07/16 07:32:44;;;;;;;3.53;2.15;;;18.70;62.50;;;18.12;47.58;97870.47;5041278;28;20796;-75
2022/07/16 07:35:16;;;;;;;3.78;2.10;;;18.80;62.20;;;18.18;47.78;97871.22;5041733;28;20923;-76
2022/07/16 07:37:48;;;;;;;3.70;1.80;;;18.80;62.10;;;18.25;47.33;97869.00;5039907;28;20422;-76
2022/07/16 07:40:15;;;;;;;3.80;2.00;;;18.90;61.80;;;18.33;45.67;97872.91;5046297;28;20398;-76
2022/07/16 07:42:41;;;;;;;3.63;2.00;;;19.00;60.80;;;18.40;45.49;97878.72;5041976;28;20399;-74
2022/07/16 07:45:09;;;;;;;3.40;1.90;;;19.00;59.70;;;18.44;44.99;97864.41;5043058;28;20937;-74
2022/07/16 07:47:35;;;;;;;3.92;2.00;;;19.10;59.30;;;18.48;45.11;97868.13;5015799;28;20418;-73
2022/07/16 07:50:03;;;;;;;3.10;1.77;;;19.10;59.10;;;18.52;44.48;97868.34;5042245;28;20461;-74
2022/07/16 07:52:30;;;;;;;3.53;1.80;;;19.20;58.60;;;18.61;44.30;97863.16;5039153;28;20446;-74
2022/07/16 07:54:56;;;;;;;4.22;1.95;;;19.20;58.50;;;18.72;42.60;97870.75;5041167;28;20415;-75
2022/07/16 07:57:23;;;;;;;5.15;1.80;;;19.30;56.90;;;18.77;42.01;97865.31;5042286;28;20416;-76
2022/07/16 07:59:50;;;;;;;3.28;1.70;;;19.40;56.10;;;18.82;42.39;97867.13;5039947;28;20422;-77
2022/07/16 08:02:16;;;;;;;3.65;1.75;;;19.40;56.40;;;18.87;41.91;97865.13;5038448;28;20482;-76
2022/07/16 08:04:42;;;;;;;3.58;1.83;;;19.50;56.00;;;18.98;41.53;97876.53;5041532;28;20880;-75
2022/07/16 08:07:09;;;;;;;3.08;1.52;;;19.60;55.70;;;19.02;41.53;97871.38;5032470;28;20425;-77
2022/07/16 08:09:35;;;;;;;4.40;1.63;;;19.60;55.60;;;19.10;41.29;97865.31;5014236;28;20514;-79
2022/07/16 08:12:02;;;;;;;2.75;1.60;;;19.70;55.50;;;19.17;41.76;97869.22;5036981;28;20404;-76
2022/07/16 08:14:30;;;;;;;4.35;2.13;;;19.80;55.70;;;19.30;41.38;97875.72;5035367;28;20741;-75
2022/07/16 08:16:57;;;;;;;5.78;1.92;;;19.90;55.50;;;19.35;39.33;97867.56;5049108;28;20402;-76
2022/07/16 08:19:23;;;;;;;4.57;1.97;;;20.00;53.60;;;19.47;39.63;97865.22;5052065;28;20393;-75
2022/07/16 08:21:49;;;;;;;3.83;1.98;;;20.10;53.70;;;19.55;40.08;97869.09;5052395;28;20887;-76
2022/07/16 08:27:00;;;;;;;4.20;1.73;;;20.20;53.70;;;19.75;37.73;97871.44;5037798;28;20437;-77
2022/07/16 08:29:26;;;;;;;4.10;2.10;;;20.30;51.90;;;19.87;37.84;97865.53;5040245;28;20422;-74
2022/07/16 08:31:53;;;;;;;4.38;1.90;;;20.40;51.60;;;19.90;37.73;97873.03;5042387;28;20428;-75
2022/07/16 08:34:22;;;;;;;2.65;1.40;;;20.50;51.60;;;19.99;38.29;97879.28;5031841;28;21239;-75
2022/07/16 08:36:49;;;;;;;4.70;1.50;;;20.60;52.20;;;20.09;36.85;97873.69;5032222;28;20430;-75
2022/07/16 08:39:15;;;;;;;2.47;1.50;;;20.70;50.60;;;20.21;37.99;97881.25;5031793;28;20889;-76
2022/07/16 08:41:42;;;;;;;3.40;1.67;;;20.70;51.60;;;20.32;37.07;97874.56;5031533;28;20506;-75
2022/07/16 08:44:09;;;;;;;6.88;1.88;;;20.90;51.10;;;20.37;37.56;97877.94;5030839;28;20749;-75
2022/07/16 08:46:35;;;;;;;5.70;1.98;;;20.90;51.30;;;20.45;36.69;97879.94;5031524;28;20402;-75
2022/07/16 08:49:03;;;;;;;4.47;1.60;;;21.00;50.80;;;20.57;36.43;97876.72;5039248;28;20411;-75
2022/07/16 08:51:32;;;;;;;3.30;1.58;;;21.10;50.20;;;20.64;37.25;97877.09;5032385;28;20744;-76
2022/07/16 08:54:08;;;;;;;3.13;1.50;;;21.20;50.80;;;20.79;37.10;97884.03;5032257;28;20407;-76
2022/07/16 08:56:35;;;;;;;7.32;1.70;;;21.30;50.90;;;20.95;34.76;97876.38;5033550;28;20407;-80
2022/07/16 08:59:01;;;;;;;4.55;1.73;;;21.40;48.60;;;20.84;34.96;97873.13;5030372;28;20398;-75
2022/07/16 09:01:29;;;;;;;2.47;1.50;;;21.40;48.30;;;20.90;35.97;97877.28;5016551;28;20469;-75
2022/07/16 09:03:56;;;;;;;4.88;1.75;;;21.40;49.40;;;21.07;36.27;97880.09;5032223;28;20403;-76
2022/07/16 09:06:24;;;;;;;3.42;1.45;;;21.60;50.00;;;21.29;34.90;97875.84;5031870;28;20460;-76
2022/07/16 09:08:51;;;;;;;5.07;1.70;;;21.80;49.10;;;21.42;32.79;97867.69;5013625;28;20836;-75
2022/07/16 09:11:20;;;;;;;4.50;1.70;;;22.00;46.10;;;21.47;33.45;97869.44;5031610;28;20755;-75
2022/07/16 09:14:05;;;;;;;3.50;1.40;;;22.10;46.90;;;21.55;35.03;97876.78;5034140;28;20393;-76
2022/07/16 09:16:35;;;;;;;2.85;1.50;;;22.10;48.50;;;21.66;35.34;97883.47;5037726;28;20445;-76
2022/07/16 09:19:04;;;;;;;2.43;1.47;;;22.10;48.80;;;21.85;34.82;97881.34;5040216;28;20443;-76
2022/07/16 09:21:31;;;;;;;3.03;1.23;;;22.30;48.60;;;22.09;33.04;97875.59;5041992;28;20409;-75
2022/07/16 09:23:57;;;;;;;2.92;1.25;;;22.60;46.40;;;22.17;33.32;97872.13;5040974;28;20418;-75
2022/07/16 09:26:26;;;;;;;5.40;1.63;;;22.60;47.30;;;22.22;32.11;97880.06;5040412;28;20591;-75
2022/07/16 09:28:52;;;;;;;3.72;1.42;;;22.70;45.40;;;22.25;32.40;97886.72;5036804;28;20916;-75
2022/07/16 09:31:37;;;;;;;5.60;1.65;;;22.80;46.20;;;22.42;32.84;97885.94;5020950;28;20781;-75
2022/07/16 09:34:07;;;;;;;3.00;1.30;;;22.90;45.90;;;22.44;33.25;97883.72;5038692;28;20491;-75
2022/07/16 09:36:35;;;;;;;6.00;1.67;;;22.90;46.40;;;22.60;32.25;97885.66;5042386;28;20413;-75
2022/07/16 09:39:03;;;;;;;2.90;1.50;;;23.10;45.70;;;22.56;32.09;97892.78;5029239;28;20415;-76
2022/07/16 09:41:42;;;;;;;3.50;1.50;;;23.10;45.00;;;22.67;32.91;97891.38;5028633;28;20762;-75
2022/07/16 09:44:14;;;;;;;1.65;1.23;;;23.10;46.00;;;22.74;32.93;97889.03;5027622;28;20485;-76
2022/07/16 09:46:55;;;;;;;3.03;1.33;;;23.20;46.10;;;22.83;32.95;97885.53;5036405;22;20423;-74
2022/07/16 09:49:21;;;;;;;4.40;1.50;;;23.30;46.30;;;23.01;31.67;97884.38;5069090;28;20565;-75
2022/07/16 09:51:48;;;;;;;3.55;1.50;;;23.40;45.10;;;23.11;32.19;97887.56;5069529;28;20781;-76
2022/07/16 09:54:26;;;;;;;3.40;1.42;;;23.60;45.30;;;23.19;32.89;97877.88;5068215;28;20408;-76
2022/07/16 09:57:13;;;;;;;2.17;1.20;;;23.70;46.10;;;23.27;33.06;97882.47;5070197;28;20414;-77
2022/07/16 09:59:40;;;;;;;3.97;1.65;;;23.70;46.20;;;23.42;31.21;97873.84;5070254;28;20399;-77
2022/07/16 10:02:08;;;;;;;3.47;1.40;;;23.90;44.10;;;23.37;31.02;97884.03;5069974;28;21304;-76
2022/07/16 10:04:35;;;;;;;5.53;1.67;;;23.90;44.10;;;23.37;30.93;97887.53;5069471;28;20441;-76
2022/07/16 10:07:02;;;;;;;5.60;1.80;;;23.90;44.00;;;23.37;30.40;97881.34;5070646;28;20404;-75
2022/07/16 10:09:28;;;;;;;2.88;1.35;;;24.00;43.70;;;23.47;31.74;97883.66;5070071;28;20411;-76
2022/07/16 10:11:57;;;;;;;6.70;1.80;;;24.00;44.70;;;23.43;30.76;97877.34;5070508;28;20625;-76
2022/07/16 10:14:24;;;;;;;3.13;1.30;;;24.00;43.20;;;23.50;31.34;97877.66;5070476;28;20392;-75
2022/07/16 10:16:56;;;;;;;4.38;1.60;;;24.00;44.30;;;23.45;31.45;97880.53;5070608;28;20479;-75
2022/07/16 10:19:22;;;;;;;1.98;1.30;;;24.00;44.50;;;23.60;32.77;97874.63;5070013;28;20398;-75
2022/07/16 10:22:19;;;;;;;3.90;1.63;;;24.00;45.60;;;23.83;32.40;97869.75;5069775;28;20412;-76
2022/07/16 10:24:50;;;;;;;5.35;1.52;;;24.20;45.60;;;24.03;29.92;97868.22;5061520;28;20897;-76
2022/07/16 10:27:30;;;;;;;2.97;1.50;;;24.50;43.60;;;24.21;30.92;97886.75;5050391;28;20407;-75